createdAt,value
2023-09-17T00:01:28.944Z,16.11
2023-09-17T00:04:31.686Z,16.04
2023-09-17T00:07:34.095Z,15.92
2023-09-17T00:10:38.471Z,15.94
2023-09-17T00:13:41.064Z,15.76
2023-09-17T00:16:43.602Z,15.88
2023-09-17T00:19:46.018Z,15.75
2023-09-17T00:22:48.402Z,15.88
2023-09-17T00:25:50.824Z,15.67
2023-09-17T00:28:53.586Z,15.85
2023-09-17T00:31:56.006Z,15.70
2023-09-17T00:34:58.584Z,15.69
2023-09-17T00:38:00.993Z,15.64
2023-09-17T00:41:03.356Z,15.72
2023-09-17T00:44:05.838Z,15.87
2023-09-17T00:47:08.835Z,15.77
2023-09-17T00:50:11.810Z,15.72
2023-09-17T00:53:15.243Z,16.17
2023-09-17T00:56:17.822Z,16.26
2023-09-17T00:59:20.580Z,16.31
2023-09-17T01:02:26.207Z,16.34
2023-09-17T01:05:38.088Z,16.13
2023-09-17T01:08:42.095Z,16.13
2023-09-17T01:11:44.775Z,16.17
2023-09-17T01:14:48.252Z,16.40
2023-09-17T01:17:51.805Z,16.33
2023-09-17T01:21:03.841Z,16.38
2023-09-17T01:24:09.381Z,16.53
2023-09-17T01:27:14.155Z,16.51
2023-09-17T01:30:22.720Z,16.54
2023-09-17T01:33:25.371Z,16.75
2023-09-17T01:36:34.358Z,16.56
2023-09-17T01:39:42.280Z,16.72
2023-09-17T01:42:49.925Z,16.83
2023-09-17T01:45:53.581Z,16.61
2023-09-17T01:48:56.849Z,16.70
2023-09-17T01:51:59.401Z,16.60
2023-09-17T01:55:03.657Z,16.71
2023-09-17T01:58:06.045Z,16.69
2023-09-17T02:01:08.482Z,16.73
2023-09-17T02:04:11.082Z,16.69
2023-09-17T02:07:13.815Z,16.72
2023-09-17T02:10:16.568Z,16.72
2023-09-17T02:13:19.012Z,16.68
2023-09-17T02:16:22.350Z,16.77
2023-09-17T02:19:26.518Z,16.41
2023-09-17T02:22:29.146Z,16.65
2023-09-17T02:25:31.617Z,16.42
2023-09-17T02:28:34.338Z,16.42
2023-09-17T02:31:36.832Z,16.55
2023-09-17T02:34:39.547Z,16.49
2023-09-17T02:37:42.078Z,16.52
2023-09-17T02:40:44.575Z,16.49
2023-09-17T02:43:47.045Z,16.47
2023-09-17T02:46:49.493Z,16.33
2023-09-17T02:49:52.122Z,16.36
2023-09-17T02:52:54.489Z,16.27
2023-09-17T02:55:57.941Z,16.26
2023-09-17T02:59:00.326Z,16.34
2023-09-17T03:02:02.909Z,16.25
2023-09-17T03:05:05.843Z,16.31
2023-09-17T03:08:10.557Z,16.17
2023-09-17T03:11:18.324Z,16.26
2023-09-17T03:14:22.028Z,16.40
2023-09-17T03:17:24.663Z,16.51
2023-09-17T03:20:28.361Z,16.68
2023-09-17T03:23:31.468Z,16.53
2023-09-17T03:26:34.040Z,16.69
2023-09-17T03:29:36.620Z,16.50
2023-09-17T03:32:46.267Z,16.78
2023-09-17T03:35:56.815Z,16.67
2023-09-17T03:39:01.064Z,16.01
2023-09-17T03:42:04.633Z,15.93
2023-09-17T03:45:10.835Z,15.90
2023-09-17T03:48:14.087Z,16.16
2023-09-17T03:51:16.574Z,16.12
2023-09-17T03:54:19.789Z,16.14
2023-09-17T03:57:23.742Z,16.04
2023-09-17T04:00:26.472Z,16.21
2023-09-17T04:03:28.977Z,16.40
2023-09-17T04:06:31.442Z,16.20
2023-09-17T04:09:33.893Z,16.47
2023-09-17T04:12:38.701Z,16.34
2023-09-17T04:15:41.070Z,16.43
2023-09-17T04:18:43.578Z,16.24
2023-09-17T04:21:45.953Z,16.51
2023-09-17T04:24:49.800Z,16.40
2023-09-17T04:27:53.233Z,16.32
2023-09-17T04:30:57.744Z,16.41
2023-09-17T04:34:00.326Z,16.60
2023-09-17T04:37:03.307Z,16.44
2023-09-17T04:40:15.671Z,16.42
2023-09-17T04:43:20.799Z,16.29
2023-09-17T04:46:23.740Z,16.38
2023-09-17T04:49:28.054Z,16.29
2023-09-17T04:52:30.723Z,16.30
2023-09-17T04:55:33.774Z,16.39
2023-09-17T04:58:36.188Z,16.50
2023-09-17T05:01:41.285Z,16.53
2023-09-17T05:04:46.206Z,16.68
2023-09-17T05:07:49.956Z,16.83
2023-09-17T05:10:53.961Z,17.00
2023-09-17T05:13:59.125Z,16.98
2023-09-17T05:17:01.602Z,17.00
2023-09-17T05:20:07.769Z,17.06
2023-09-17T05:23:13.343Z,17.05
2023-09-17T05:26:16.910Z,17.20
2023-09-17T05:29:19.448Z,17.39
2023-09-17T05:32:22.672Z,17.56
2023-09-17T05:35:25.172Z,17.50
2023-09-17T05:38:28.627Z,17.27
2023-09-17T05:41:31.062Z,17.42
2023-09-17T05:44:33.841Z,17.61
2023-09-17T05:47:36.548Z,17.77
2023-09-17T05:50:39.159Z,17.70
2023-09-17T05:53:41.925Z,17.79
2023-09-17T05:56:44.352Z,18.03
2023-09-17T05:59:46.961Z,18.11
2023-09-17T06:02:49.457Z,18.11
2023-09-17T06:05:56.768Z,18.27
2023-09-17T06:08:59.131Z,18.43
2023-09-17T06:12:03.554Z,18.48
2023-09-17T06:15:06.707Z,18.47
2023-09-17T06:18:09.358Z,18.72
2023-09-17T06:21:11.804Z,18.76
2023-09-17T06:24:14.166Z,18.89
2023-09-17T06:27:16.648Z,18.98
2023-09-17T06:30:19.204Z,19.04
2023-09-17T06:33:21.641Z,19.14
2023-09-17T06:36:24.307Z,19.03
2023-09-17T06:39:26.654Z,19.12
2023-09-17T06:42:30.776Z,19.28
2023-09-17T06:45:33.192Z,19.16
2023-09-17T06:48:35.745Z,18.95
2023-09-17T06:51:38.423Z,19.06
2023-09-17T06:54:40.904Z,19.19
2023-09-17T06:57:43.262Z,19.22
2023-09-17T07:00:47.029Z,19.23
2023-09-17T07:03:49.635Z,19.20
2023-09-17T07:06:52.383Z,19.43
2023-09-17T07:09:54.797Z,19.38
2023-09-17T07:12:57.341Z,19.45
2023-09-17T07:15:59.821Z,19.39
2023-09-17T07:19:02.345Z,19.34
2023-09-17T07:22:04.884Z,19.67
2023-09-17T07:25:07.714Z,19.85
2023-09-17T07:28:10.164Z,20.98
2023-09-17T07:31:13.240Z,21.93
2023-09-17T07:34:15.934Z,21.88
2023-09-17T07:37:20.157Z,21.92
2023-09-17T07:40:22.718Z,23.13
2023-09-17T07:43:25.140Z,23.16
2023-09-17T07:46:27.570Z,25.81
2023-09-17T07:49:30.354Z,27.47
2023-09-17T07:52:33.483Z,28.27
2023-09-17T07:55:36.052Z,28.46
2023-09-17T07:58:38.535Z,29.47
2023-09-17T08:01:41.099Z,27.94
2023-09-17T08:04:43.590Z,26.61
2023-09-17T08:07:46.945Z,25.18
2023-09-17T08:10:50.902Z,24.39
2023-09-17T08:13:53.718Z,23.79
2023-09-17T08:16:56.835Z,23.65
2023-09-17T08:19:59.998Z,23.57
2023-09-17T08:23:02.458Z,24.09
2023-09-17T08:26:06.298Z,25.66
2023-09-17T08:29:11.196Z,25.75
2023-09-17T08:32:14.496Z,25.80
2023-09-17T08:35:16.869Z,26.94
2023-09-17T08:38:20.238Z,27.11
2023-09-17T08:41:25.966Z,28.15
2023-09-17T08:44:33.086Z,28.71
2023-09-17T08:47:35.784Z,28.90
2023-09-17T08:50:39.029Z,28.98
2023-09-17T08:53:51.404Z,29.95
2023-09-17T08:56:58.049Z,29.42
2023-09-17T09:00:11.585Z,27.73
2023-09-17T09:03:16.980Z,27.46
2023-09-17T09:06:22.997Z,26.87
2023-09-17T09:09:26.334Z,26.75
2023-09-17T09:12:30.567Z,27.60
2023-09-17T09:15:33.889Z,27.36
2023-09-17T09:18:36.435Z,28.41
2023-09-17T09:21:38.790Z,29.41
2023-09-17T09:24:50.902Z,30.19
2023-09-17T09:27:53.434Z,27.98
2023-09-17T09:30:55.994Z,27.98
2023-09-17T09:34:00.859Z,28.44
2023-09-17T09:37:10.830Z,28.18
2023-09-17T09:40:16.373Z,30.06
2023-09-17T09:43:32.224Z,31.63
2023-09-17T09:46:35.192Z,31.38
2023-09-17T09:49:44.698Z,29.66
2023-09-17T09:52:49.346Z,28.86
2023-09-17T09:55:52.623Z,30.20
2023-09-17T09:58:56.738Z,29.00
2023-09-17T10:02:00.049Z,30.53
2023-09-17T10:05:05.850Z,32.28
2023-09-17T10:08:20.998Z,32.03
2023-09-17T10:11:23.797Z,31.97
2023-09-17T10:14:27.903Z,32.68
2023-09-17T10:17:33.662Z,32.81
2023-09-17T10:20:36.687Z,33.66
2023-09-17T10:23:39.364Z,33.45
2023-09-17T10:26:44.072Z,33.42
2023-09-17T10:29:50.331Z,33.00
2023-09-17T10:32:53.394Z,33.35
2023-09-17T10:35:58.233Z,32.23
2023-09-17T10:39:01.091Z,30.58
2023-09-17T10:42:06.308Z,30.42
2023-09-17T10:45:11.713Z,30.21
2023-09-17T10:48:15.675Z,30.26
2023-09-17T10:51:19.050Z,29.92
2023-09-17T10:54:21.575Z,29.39
2023-09-17T10:57:35.495Z,29.12
2023-09-17T11:00:40.895Z,28.60
2023-09-17T11:03:50.474Z,28.30
2023-09-17T11:06:54.075Z,28.31
2023-09-17T11:09:57.099Z,28.46
2023-09-17T11:12:59.986Z,28.89
2023-09-17T11:16:02.483Z,29.74
2023-09-17T11:19:12.396Z,30.22
2023-09-17T11:22:14.878Z,30.28
2023-09-17T11:25:34.476Z,30.69
2023-09-17T11:28:39.923Z,29.77
2023-09-17T11:31:51.671Z,30.66
2023-09-17T11:34:55.666Z,30.72
2023-09-17T11:37:58.463Z,31.37
2023-09-17T11:41:12.205Z,31.28
2023-09-17T11:44:14.992Z,31.00
2023-09-17T11:47:19.144Z,31.38
2023-09-17T11:50:22.279Z,32.13
2023-09-17T11:53:24.849Z,32.86
2023-09-17T11:56:46.787Z,32.22
2023-09-17T11:59:49.293Z,32.92
2023-09-17T12:02:52.310Z,33.58
2023-09-17T12:05:55.023Z,33.72
2023-09-17T12:09:39.467Z,32.62
2023-09-17T12:13:00.691Z,31.00
2023-09-17T12:16:03.307Z,31.33
2023-09-17T12:19:17.840Z,29.67
2023-09-17T12:22:21.533Z,28.84
2023-09-17T12:25:25.140Z,28.79
2023-09-17T12:28:29.170Z,28.99
2023-09-17T12:31:31.937Z,29.07
2023-09-17T12:34:38.361Z,30.00
2023-09-17T12:37:40.773Z,30.90
2023-09-17T12:40:43.155Z,31.41
2023-09-17T12:43:45.665Z,31.00
2023-09-17T12:46:48.330Z,31.26
2023-09-17T12:49:54.341Z,31.80
2023-09-17T12:52:57.096Z,32.75
2023-09-17T12:56:01.413Z,32.67
2023-09-17T12:59:04.976Z,31.31
2023-09-17T13:02:08.688Z,30.91
2023-09-17T13:05:21.315Z,30.54
2023-09-17T13:08:26.342Z,30.88
2023-09-17T13:11:29.894Z,31.25
2023-09-17T13:14:32.734Z,31.68
2023-09-17T13:17:35.285Z,31.71
2023-09-17T13:20:38.138Z,31.20
2023-09-17T13:23:41.126Z,31.72
2023-09-17T13:26:44.255Z,31.68
2023-09-17T13:29:51.732Z,31.08
2023-09-17T13:32:57.417Z,31.17
2023-09-17T13:36:03.061Z,31.10
2023-09-17T13:39:05.607Z,31.54
2023-09-17T13:42:08.612Z,31.07
2023-09-17T13:45:11.212Z,30.81
2023-09-17T13:48:13.854Z,31.15
2023-09-17T13:51:16.258Z,31.45
2023-09-17T13:54:18.606Z,31.38
2023-09-17T13:57:21.485Z,30.90
2023-09-17T14:00:23.940Z,31.56
2023-09-17T14:03:26.360Z,31.27
2023-09-17T14:06:28.778Z,31.24
2023-09-17T14:09:31.272Z,31.73
2023-09-17T14:12:34.161Z,31.57
2023-09-17T14:15:38.323Z,31.62
2023-09-17T14:18:40.829Z,31.16
2023-09-17T14:21:43.211Z,30.33
2023-09-17T14:24:45.718Z,30.69
2023-09-17T14:27:48.380Z,30.15
2023-09-17T14:30:50.887Z,30.47
2023-09-17T14:33:53.294Z,30.53
2023-09-17T14:36:55.656Z,29.93
2023-09-17T14:39:58.485Z,30.19
2023-09-17T14:43:01.011Z,29.31
2023-09-17T14:46:03.432Z,29.27
2023-09-17T14:49:06.290Z,28.88
2023-09-17T14:52:08.733Z,29.09
2023-09-17T14:55:11.419Z,29.14
2023-09-17T14:58:14.774Z,29.44
2023-09-17T15:01:33.499Z,29.01
2023-09-17T15:04:39.809Z,28.94
2023-09-17T15:07:43.648Z,28.55
2023-09-17T15:10:46.128Z,28.55
2023-09-17T15:13:48.543Z,28.47
2023-09-17T15:16:51.003Z,27.77
2023-09-17T15:19:53.566Z,27.80
2023-09-17T15:22:56.135Z,27.72
2023-09-17T15:25:58.612Z,27.56
2023-09-17T15:29:01.269Z,27.38
2023-09-17T15:32:04.507Z,27.54
2023-09-17T15:35:12.244Z,27.44
2023-09-17T15:38:16.268Z,27.38
2023-09-17T15:41:19.017Z,26.79
2023-09-17T15:44:23.996Z,26.41
2023-09-17T15:47:26.575Z,26.23
2023-09-17T15:50:29.249Z,26.18
2023-09-17T15:53:33.101Z,25.80
2023-09-17T15:56:35.506Z,25.79
2023-09-17T15:59:39.552Z,25.58
2023-09-17T16:02:42.367Z,25.38
2023-09-17T16:05:45.496Z,25.17
2023-09-17T16:08:47.873Z,24.90
2023-09-17T16:11:50.254Z,24.90
2023-09-17T16:14:52.909Z,24.80
2023-09-17T16:17:55.360Z,24.74
2023-09-17T16:20:58.001Z,24.77
2023-09-17T16:24:00.481Z,24.60
2023-09-17T16:27:05.594Z,24.47
2023-09-17T16:30:09.377Z,24.22
2023-09-17T16:33:11.785Z,24.28
2023-09-17T16:36:14.182Z,24.08
2023-09-17T16:39:16.688Z,23.76
2023-09-17T16:42:19.073Z,23.79
2023-09-17T16:45:21.687Z,23.57
2023-09-17T16:48:25.809Z,23.62
2023-09-17T16:51:28.166Z,23.39
2023-09-17T16:54:30.592Z,23.37
2023-09-17T16:57:33.040Z,23.20
2023-09-17T17:00:35.470Z,23.13
2023-09-17T17:03:38.025Z,23.00
2023-09-17T17:06:40.505Z,22.87
2023-09-17T17:09:42.900Z,22.64
2023-09-17T17:12:45.354Z,22.50
2023-09-17T17:15:48.021Z,22.40
2023-09-17T17:18:51.332Z,22.34
2023-09-17T17:21:54.019Z,22.22
2023-09-17T17:24:56.552Z,22.34
2023-09-17T17:27:58.920Z,22.18
2023-09-17T17:31:01.790Z,22.10
2023-09-17T17:34:04.236Z,22.00
2023-09-17T17:37:06.793Z,21.96
2023-09-17T17:40:09.669Z,21.94
2023-09-17T17:43:12.272Z,21.89
2023-09-17T17:46:15.214Z,21.93
2023-09-17T17:49:17.642Z,21.90
2023-09-17T17:52:21.821Z,21.86
2023-09-17T17:55:24.258Z,21.74
2023-09-17T17:58:26.845Z,21.74
2023-09-17T18:01:29.633Z,21.75
2023-09-17T18:04:32.315Z,21.50
2023-09-17T18:07:35.115Z,21.62
2023-09-17T18:10:39.037Z,21.58
2023-09-17T18:13:41.427Z,21.67
2023-09-17T18:16:43.786Z,21.52
2023-09-17T18:19:46.769Z,21.53
2023-09-17T18:22:49.492Z,21.47
2023-09-17T18:25:52.192Z,21.55
2023-09-17T18:28:58.039Z,21.39
2023-09-17T18:32:01.437Z,21.57
2023-09-17T18:35:04.494Z,21.36
2023-09-17T18:38:07.238Z,21.36
2023-09-17T18:41:09.723Z,21.37
2023-09-17T18:44:12.391Z,21.38
2023-09-17T18:47:15.158Z,21.35
2023-09-17T18:50:17.967Z,21.08
2023-09-17T18:53:20.791Z,21.13
2023-09-17T18:56:23.971Z,21.13
2023-09-17T18:59:26.708Z,21.07
2023-09-17T19:02:29.371Z,21.08
2023-09-17T19:05:32.714Z,21.01
2023-09-17T19:08:36.821Z,20.89
2023-09-17T19:11:40.712Z,20.93
2023-09-17T19:14:47.584Z,20.79
2023-09-17T19:17:50.421Z,20.85
2023-09-17T19:21:06.767Z,20.81
2023-09-17T19:24:09.702Z,20.95
2023-09-17T19:27:14.539Z,20.84
2023-09-17T19:30:17.337Z,20.83
2023-09-17T19:33:20.017Z,20.74
2023-09-17T19:36:24.227Z,20.69
2023-09-17T19:39:26.975Z,20.80
2023-09-17T19:42:30.123Z,20.77
2023-09-17T19:45:32.850Z,20.85
2023-09-17T19:48:35.610Z,20.81
2023-09-17T19:51:38.688Z,20.81
2023-09-17T19:54:45.299Z,20.72
2023-09-17T19:57:49.379Z,20.71
2023-09-17T20:00:52.093Z,20.76
2023-09-17T20:03:56.561Z,20.56
2023-09-17T20:07:01.112Z,20.38
2023-09-17T20:10:05.452Z,20.07
2023-09-17T20:13:07.976Z,20.03
2023-09-17T20:16:10.329Z,19.75
2023-09-17T20:19:13.088Z,19.70
2023-09-17T20:22:15.462Z,19.73
2023-09-17T20:25:22.414Z,19.65
2023-09-17T20:28:24.790Z,19.50
2023-09-17T20:31:27.221Z,19.32
2023-09-17T20:34:29.763Z,19.38
2023-09-17T20:37:32.172Z,19.30
2023-09-17T20:40:34.572Z,19.11
2023-09-17T20:43:37.359Z,19.11
2023-09-17T20:46:41.299Z,18.77
2023-09-17T20:49:43.634Z,19.04
2023-09-17T20:52:46.088Z,18.69
2023-09-17T20:55:48.773Z,18.71
2023-09-17T20:58:51.497Z,18.84
2023-09-17T21:01:54.859Z,18.73
2023-09-17T21:04:59.904Z,18.71
2023-09-17T21:08:02.332Z,18.66
2023-09-17T21:11:04.784Z,18.74
2023-09-17T21:14:07.221Z,18.64
2023-09-17T21:17:11.343Z,18.48
2023-09-17T21:20:20.288Z,18.36
2023-09-17T21:23:23.330Z,18.40
2023-09-17T21:26:26.142Z,18.37
2023-09-17T21:29:28.648Z,18.41
2023-09-17T21:32:31.605Z,18.15
2023-09-17T21:35:34.236Z,18.25
2023-09-17T21:38:36.760Z,18.08
2023-09-17T21:41:39.148Z,18.13
2023-09-17T21:44:41.574Z,18.12
2023-09-17T21:47:44.299Z,18.09
2023-09-17T21:50:46.815Z,18.07
2023-09-17T21:53:50.367Z,18.05
2023-09-17T21:56:52.761Z,18.00
2023-09-17T21:59:55.200Z,18.05
2023-09-17T22:03:00.107Z,18.08
2023-09-17T22:06:03.404Z,17.88
2023-09-17T22:09:08.483Z,17.67
2023-09-17T22:12:12.194Z,17.85
2023-09-17T22:15:14.679Z,17.97
2023-09-17T22:18:17.244Z,17.95
2023-09-17T22:21:19.666Z,17.73
2023-09-17T22:24:22.579Z,17.67
2023-09-17T22:27:25.332Z,17.71
2023-09-17T22:30:27.723Z,17.42
2023-09-17T22:33:31.210Z,17.45
2023-09-17T22:36:33.589Z,17.46
2023-09-17T22:39:39.758Z,17.43
2023-09-17T22:42:42.110Z,17.51
2023-09-17T22:45:44.578Z,17.55
2023-09-17T22:48:51.189Z,17.46
2023-09-17T22:51:54.101Z,17.47
2023-09-17T22:54:56.762Z,17.43
2023-09-17T22:57:59.161Z,17.29
2023-09-17T23:01:01.587Z,17.27
2023-09-17T23:04:04.138Z,17.36
2023-09-17T23:07:06.553Z,17.56
2023-09-17T23:10:09.371Z,17.34
2023-09-17T23:13:11.950Z,17.28
2023-09-17T23:16:16.020Z,17.44
2023-09-17T23:19:19.110Z,17.42
2023-09-17T23:22:21.829Z,17.29
2023-09-17T23:25:24.419Z,17.48
2023-09-17T23:28:33.019Z,17.45
2023-09-17T23:31:38.877Z,17.43
2023-09-17T23:34:41.438Z,17.28
2023-09-17T23:37:43.827Z,17.27
2023-09-17T23:40:46.240Z,17.34
2023-09-17T23:43:48.702Z,17.40
2023-09-17T23:46:51.204Z,17.36
2023-09-17T23:49:54.457Z,17.03
2023-09-17T23:52:56.870Z,16.98
2023-09-17T23:55:59.729Z,17.10
2023-09-17T23:59:02.148Z,17.14
